createdAt,value
2023-04-27T00:00:48.900Z,17.96
2023-04-27T00:01:51.760Z,17.96
2023-04-27T00:03:05.803Z,17.96
2023-04-27T00:04:18.965Z,17.93
2023-04-27T00:05:22.994Z,17.93
2023-04-27T00:06:35.769Z,17.93
2023-04-27T00:07:49.457Z,17.93
2023-04-27T00:08:52.208Z,17.92
2023-04-27T00:10:05.933Z,17.94
2023-04-27T00:11:18.675Z,17.93
2023-04-27T00:12:31.910Z,17.92
2023-04-27T00:13:34.939Z,17.9
2023-04-27T00:14:48.400Z,17.92
2023-04-27T00:15:51.215Z,17.92
2023-04-27T00:17:04.963Z,17.89
2023-04-27T00:18:17.693Z,17.89
2023-04-27T00:19:21.405Z,17.92
2023-04-27T00:20:34.120Z,17.89
2023-04-27T00:21:47.922Z,17.87
2023-04-27T00:22:50.700Z,17.87
2023-04-27T00:24:04.420Z,17.87
2023-04-27T00:25:17.159Z,17.86
2023-04-27T00:26:30.414Z,17.87
2023-04-27T00:27:33.204Z,17.86
2023-04-27T00:28:46.946Z,17.86
2023-04-27T00:29:59.679Z,17.87
2023-04-27T00:31:03.494Z,17.83
2023-04-27T00:32:16.338Z,17.83
2023-04-27T00:33:29.906Z,17.83
2023-04-27T00:34:32.662Z,17.82
2023-04-27T00:35:46.676Z,17.8
2023-04-27T00:36:59.607Z,17.8
2023-04-27T00:38:12.911Z,17.82
2023-04-27T00:39:16.140Z,17.82
2023-04-27T00:40:29.986Z,17.83
2023-04-27T00:41:32.917Z,17.8
2023-04-27T00:42:46.413Z,17.82
2023-04-27T00:43:59.154Z,17.79
2023-04-27T00:45:02.928Z,17.79
2023-04-27T00:46:15.736Z,17.8
2023-04-27T00:47:29.974Z,17.78
2023-04-27T00:48:32.877Z,17.76
2023-04-27T00:49:46.439Z,17.78
2023-04-27T00:50:58.946Z,17.76
2023-04-27T00:52:12.428Z,17.76
2023-04-27T00:53:15.191Z,17.75
2023-04-27T00:54:28.936Z,17.73
2023-04-27T00:55:41.674Z,17.75
2023-04-27T00:56:45.454Z,17.73
2023-04-27T00:57:58.290Z,17.73
2023-04-27T00:59:12.088Z,17.73
2023-04-27T01:00:15.213Z,17.73
2023-04-27T01:01:28.987Z,17.72
2023-04-27T01:02:42.042Z,17.73
2023-04-27T01:03:46.072Z,17.72
2023-04-27T01:04:59.082Z,17.72
2023-04-27T01:06:12.499Z,17.73
2023-04-27T01:07:15.245Z,17.71
2023-04-27T01:08:28.952Z,17.69
2023-04-27T01:09:41.674Z,17.72
2023-04-27T01:10:45.469Z,17.71
2023-04-27T01:11:58.528Z,17.73
2023-04-27T01:13:11.948Z,17.69
2023-04-27T01:14:14.706Z,17.71
2023-04-27T01:15:28.457Z,17.69
2023-04-27T01:16:41.217Z,17.66
2023-04-27T01:17:55.058Z,17.68
2023-04-27T01:18:57.956Z,17.68
2023-04-27T01:20:11.470Z,17.68
2023-04-27T01:21:24.176Z,17.71
2023-04-27T01:22:27.938Z,17.66
2023-04-27T01:23:40.657Z,17.66
2023-04-27T01:24:53.958Z,17.66
2023-04-27T01:25:56.766Z,17.69
2023-04-27T01:27:10.419Z,17.68
2023-04-27T01:28:23.151Z,17.66
2023-04-27T01:29:26.941Z,17.66
2023-04-27T01:30:39.697Z,17.62
2023-04-27T01:31:53.469Z,17.65
2023-04-27T01:32:56.291Z,17.63
2023-04-27T01:34:10.420Z,17.63
2023-04-27T01:35:23.169Z,17.61
2023-04-27T01:36:36.961Z,17.63
2023-04-27T01:37:39.760Z,17.62
2023-04-27T01:38:53.429Z,17.62
2023-04-27T01:40:06.224Z,17.59
2023-04-27T01:41:09.938Z,17.61
2023-04-27T01:42:22.482Z,17.59
2023-04-27T01:43:35.975Z,17.58
2023-04-27T01:44:38.566Z,17.58
2023-04-27T01:45:52.008Z,17.58
2023-04-27T01:47:04.674Z,17.56
2023-04-27T01:48:07.968Z,17.56
2023-04-27T01:49:20.510Z,17.54
2023-04-27T01:50:33.951Z,17.55
2023-04-27T01:51:46.728Z,17.56
2023-04-27T01:52:50.464Z,17.55
2023-04-27T01:54:03.230Z,17.55
2023-04-27T01:55:16.986Z,17.54
2023-04-27T01:56:19.773Z,17.55
2023-04-27T01:57:33.797Z,17.54
2023-04-27T01:58:46.550Z,17.55
2023-04-27T01:59:49.949Z,17.52
2023-04-27T02:01:02.727Z,17.52
2023-04-27T02:02:16.517Z,17.52
2023-04-27T02:03:19.507Z,17.51
2023-04-27T02:04:33.160Z,17.51
2023-04-27T02:05:46.001Z,17.49
2023-04-27T02:06:59.470Z,17.51
2023-04-27T02:08:02.248Z,17.49
2023-04-27T02:09:16.080Z,17.51
2023-04-27T02:10:28.976Z,17.48
2023-04-27T02:11:32.461Z,17.48
2023-04-27T02:12:45.224Z,17.48
2023-04-27T02:13:58.939Z,17.49
2023-04-27T02:15:01.859Z,17.46
2023-04-27T02:16:15.587Z,17.48
2023-04-27T02:17:28.431Z,17.48
2023-04-27T02:18:31.977Z,17.45
2023-04-27T02:19:44.731Z,17.46
2023-04-27T02:20:58.462Z,17.46
2023-04-27T02:22:01.274Z,17.45
2023-04-27T02:23:14.958Z,17.46
2023-04-27T02:24:27.783Z,17.43
2023-04-27T02:25:41.460Z,17.45
2023-04-27T02:26:44.249Z,17.43
2023-04-27T02:27:57.990Z,17.42
2023-04-27T02:29:01.326Z,17.42
2023-04-27T02:30:15.489Z,17.42
2023-04-27T02:31:28.757Z,17.45
2023-04-27T02:32:32.461Z,17.42
2023-04-27T02:33:45.318Z,17.43
2023-04-27T02:34:59.055Z,17.41
2023-04-27T02:36:01.911Z,17.43
2023-04-27T02:37:15.455Z,17.42
2023-04-27T02:38:28.226Z,17.43
2023-04-27T02:39:41.962Z,17.39
2023-04-27T02:40:44.837Z,17.39
2023-04-27T02:41:58.458Z,17.41
2023-04-27T02:43:11.219Z,17.39
2023-04-27T02:44:14.997Z,17.36
2023-04-27T02:45:27.769Z,17.39
2023-04-27T02:46:41.506Z,17.39
2023-04-27T02:47:44.362Z,17.39
2023-04-27T02:48:57.985Z,17.38
2023-04-27T02:50:10.744Z,17.36
2023-04-27T02:51:14.457Z,17.38
2023-04-27T02:52:27.236Z,17.38
2023-04-27T02:53:40.993Z,17.35
2023-04-27T02:54:43.895Z,17.38
2023-04-27T02:55:57.472Z,17.36
2023-04-27T02:57:10.252Z,17.36
2023-04-27T02:58:24.188Z,17.35
2023-04-27T02:59:27.040Z,17.34
2023-04-27T03:00:40.977Z,17.35
2023-04-27T03:01:53.748Z,17.32
2023-04-27T03:02:57.573Z,17.35
2023-04-27T03:04:10.525Z,17.35
2023-04-27T03:05:24.487Z,17.34
2023-04-27T03:06:27.289Z,17.32
2023-04-27T03:07:40.980Z,17.32
2023-04-27T03:08:53.729Z,17.32
2023-04-27T03:09:57.498Z,17.32
2023-04-27T03:11:10.250Z,17.32
2023-04-27T03:12:23.973Z,17.31
2023-04-27T03:13:26.771Z,17.31
2023-04-27T03:14:40.986Z,17.29
2023-04-27T03:15:53.823Z,17.32
2023-04-27T03:16:57.610Z,17.28
2023-04-27T03:18:10.454Z,17.31
2023-04-27T03:19:23.968Z,17.31
2023-04-27T03:20:36.718Z,17.28
2023-04-27T03:21:41.068Z,17.28
2023-04-27T03:22:53.840Z,17.32
2023-04-27T03:24:07.466Z,17.28
2023-04-27T03:25:10.270Z,17.31
2023-04-27T03:26:23.998Z,17.27
2023-04-27T03:27:36.784Z,17.28
2023-04-27T03:28:41.008Z,17.28
2023-04-27T03:29:53.791Z,17.29
2023-04-27T03:31:07.605Z,17.27
2023-04-27T03:32:10.582Z,17.25
2023-04-27T03:33:24.478Z,17.28
2023-04-27T03:34:37.266Z,17.27
2023-04-27T03:35:51.005Z,17.25
2023-04-27T03:36:53.842Z,17.27
2023-04-27T03:38:07.600Z,17.25
2023-04-27T03:39:20.510Z,17.27
2023-04-27T03:40:24.006Z,17.25
2023-04-27T03:41:36.803Z,17.24
2023-04-27T03:42:50.496Z,17.25
2023-04-27T03:43:53.435Z,17.24
2023-04-27T03:45:06.972Z,17.24
2023-04-27T03:46:19.800Z,17.24
2023-04-27T03:47:23.546Z,17.22
2023-04-27T03:48:36.462Z,17.24
2023-04-27T03:49:50.001Z,17.25
2023-04-27T03:50:52.842Z,17.24
2023-04-27T03:52:06.519Z,17.22
2023-04-27T03:53:19.313Z,17.22
2023-04-27T03:54:32.997Z,17.22
2023-04-27T03:55:35.825Z,17.24
2023-04-27T03:56:49.499Z,17.21
2023-04-27T03:58:02.424Z,17.2
2023-04-27T03:59:06.608Z,17.18
2023-04-27T04:00:21.818Z,17.21
2023-04-27T04:01:26.018Z,17.18
2023-04-27T04:02:38.880Z,17.18
2023-04-27T04:03:52.732Z,17.2
2023-04-27T04:04:55.896Z,17.18
2023-04-27T04:06:10.032Z,17.2
2023-04-27T04:07:22.874Z,17.2
2023-04-27T04:08:26.494Z,17.18
2023-04-27T04:09:39.267Z,17.17
2023-04-27T04:10:53.077Z,17.15
2023-04-27T04:12:05.832Z,17.22
2023-04-27T04:13:09.530Z,17.29
2023-04-27T04:14:22.382Z,17.36
2023-04-27T04:15:36.060Z,17.51
2023-04-27T04:16:38.887Z,17.61
2023-04-27T04:17:52.545Z,17.75
2023-04-27T04:19:05.296Z,17.85
2023-04-27T04:20:09.009Z,17.94
2023-04-27T04:21:21.570Z,18.03
2023-04-27T04:22:34.992Z,18.17
2023-04-27T04:23:47.573Z,18.24
2023-04-27T04:24:50.973Z,18.31
2023-04-27T04:26:03.530Z,18.41
2023-04-27T04:27:17.013Z,18.48
2023-04-27T04:28:19.915Z,18.53
2023-04-27T04:29:33.546Z,18.61
2023-04-27T04:30:46.060Z,18.65
2023-04-27T04:31:59.518Z,18.69
2023-04-27T04:33:02.145Z,18.77
2023-04-27T04:34:15.516Z,18.8
2023-04-27T04:35:28.000Z,18.81
2023-04-27T04:36:31.523Z,18.84
2023-04-27T04:37:44.009Z,18.88
2023-04-27T04:38:57.515Z,18.94
2023-04-27T04:40:00.073Z,18.95
2023-04-27T04:41:13.496Z,18.98
2023-04-27T04:42:25.975Z,19.01
2023-04-27T04:43:39.502Z,19.04
2023-04-27T04:44:42.080Z,19.04
2023-04-27T04:45:55.508Z,19.05
2023-04-27T04:47:37.452Z,19.06
2023-04-27T04:48:12.005Z,19.11
2023-04-27T04:49:24.603Z,19.13
2023-04-27T04:50:38.016Z,19.13
2023-04-27T04:51:40.537Z,19.13
2023-04-27T04:52:54.020Z,19.12
2023-04-27T04:54:06.496Z,19.09
2023-04-27T04:55:20.071Z,19.06
2023-04-27T04:57:02.313Z,19.02
2023-04-27T04:57:36.055Z,19.01
2023-04-27T04:58:48.519Z,19.01
2023-04-27T05:00:02.978Z,18.99
2023-04-27T05:02:24.751Z,18.98
2023-04-27T05:02:28.220Z,18.96
2023-04-27T05:03:31.078Z,18.99
2023-04-27T05:04:34.636Z,18.96
2023-04-27T05:05:47.458Z,18.98
2023-04-27T05:07:00.608Z,18.99
2023-04-27T05:08:03.191Z,19.04
2023-04-27T05:09:56.034Z,19.01
2023-04-27T05:11:08.377Z,19.01
2023-04-27T05:11:41.217Z,19.01
2023-04-27T05:12:44.537Z,19.02
2023-04-27T05:13:56.976Z,19.04
2023-04-27T05:15:10.028Z,19.05
2023-04-27T05:16:22.535Z,19.06
2023-04-27T05:17:26.582Z,19.05
2023-04-27T05:18:39.105Z,19.08
2023-04-27T05:19:52.517Z,19.08
2023-04-27T05:20:55.189Z,19.08
2023-04-27T05:22:08.512Z,19.11
2023-04-27T05:23:20.973Z,19.08
2023-04-27T05:24:33.998Z,19.09
2023-04-27T05:25:36.549Z,19.11
2023-04-27T05:26:50.028Z,19.09
2023-04-27T05:28:02.477Z,19.08
2023-04-27T05:29:25.493Z,19.11
2023-04-27T05:30:18.260Z,19.08
2023-04-27T05:31:31.577Z,19.11
2023-04-27T05:32:44.156Z,19.12
2023-04-27T05:33:47.510Z,19.16
2023-04-27T05:34:59.972Z,19.13
2023-04-27T05:36:13.021Z,19.13
2023-04-27T05:37:15.555Z,19.15
2023-04-27T05:38:29.038Z,19.12
2023-04-27T05:39:42.411Z,19.15
2023-04-27T05:40:55.653Z,19.15
2023-04-27T05:41:58.785Z,19.12
2023-04-27T05:43:13.314Z,19.13
2023-04-27T05:44:15.880Z,19.15
2023-04-27T05:45:29.054Z,19.15
2023-04-27T05:46:41.574Z,19.13
2023-04-27T05:47:55.099Z,19.15
2023-04-27T05:48:57.662Z,19.15
2023-04-27T05:50:11.014Z,19.13
2023-04-27T05:51:23.482Z,19.13
2023-04-27T05:52:38.243Z,19.13
2023-04-27T05:53:40.991Z,19.15
2023-04-27T05:54:54.034Z,19.15
2023-04-27T05:56:06.474Z,19.13
2023-04-27T05:57:10.006Z,19.16
2023-04-27T05:58:22.470Z,19.13
2023-04-27T05:59:35.532Z,19.13
2023-04-27T06:00:38.070Z,19.11
2023-04-27T06:01:51.576Z,19.12
2023-04-27T06:03:04.267Z,19.12
2023-04-27T06:04:37.551Z,19.12
2023-04-27T06:05:20.401Z,19.15
2023-04-27T06:06:32.860Z,19.13
2023-04-27T06:07:46.006Z,19.16
2023-04-27T06:08:48.530Z,19.19
2023-04-27T06:10:02.043Z,19.17
2023-04-27T06:11:14.506Z,19.17
2023-04-27T06:12:28.023Z,19.19
2023-04-27T06:13:30.581Z,19.17
2023-04-27T06:14:44.044Z,19.2
2023-04-27T06:15:56.546Z,19.19
2023-04-27T06:17:00.015Z,19.2
2023-04-27T06:18:12.522Z,19.19
2023-04-27T06:19:26.026Z,19.19
2023-04-27T06:20:28.584Z,19.22
2023-04-27T06:21:42.028Z,19.23
2023-04-27T06:22:54.473Z,19.2
2023-04-27T06:24:08.043Z,19.23
2023-04-27T06:25:10.595Z,19.22
2023-04-27T06:26:24.023Z,19.22
2023-04-27T06:27:36.470Z,19.22
2023-04-27T06:28:40.079Z,19.23
2023-04-27T06:29:52.548Z,19.25
2023-04-27T06:31:06.064Z,19.23
2023-04-27T06:32:18.594Z,19.23
2023-04-27T06:33:22.064Z,19.26
2023-04-27T06:34:34.611Z,19.26
2023-04-27T06:35:48.035Z,19.26
2023-04-27T06:36:50.559Z,19.27
2023-04-27T06:38:04.831Z,19.26
2023-04-27T06:39:19.319Z,19.29
2023-04-27T06:40:22.552Z,19.27
2023-04-27T06:41:35.041Z,19.33
2023-04-27T06:42:48.562Z,19.32
2023-04-27T06:43:51.077Z,19.35
2023-04-27T06:45:04.534Z,19.35
2023-04-27T06:46:17.027Z,19.33
2023-04-27T06:47:30.513Z,19.35
2023-04-27T06:48:33.029Z,19.38
2023-04-27T06:49:47.458Z,19.39
2023-04-27T06:50:52.006Z,19.38
2023-04-27T06:52:05.545Z,19.4
2023-04-27T06:53:18.022Z,19.39
2023-04-27T06:54:31.562Z,19.42
2023-04-27T06:55:34.138Z,19.43
2023-04-27T06:56:47.535Z,19.43
2023-04-27T06:57:59.959Z,19.43
2023-04-27T06:59:03.559Z,19.42
2023-04-27T07:00:16.277Z,19.43
2023-04-27T07:01:29.820Z,19.45
2023-04-27T07:02:46.604Z,19.47
2023-04-27T07:03:49.606Z,19.5
2023-04-27T07:04:53.237Z,19.49
2023-04-27T07:06:05.864Z,19.52
2023-04-27T07:07:19.199Z,19.53
2023-04-27T07:08:31.683Z,19.52
2023-04-27T07:09:35.181Z,19.55
2023-04-27T07:10:47.612Z,19.55
2023-04-27T07:12:11.300Z,19.56
2023-04-27T07:13:04.033Z,19.6
2023-04-27T07:14:17.678Z,19.59
2023-04-27T07:15:30.100Z,19.6
2023-04-27T07:16:33.711Z,19.59
2023-04-27T07:17:46.322Z,19.6
2023-04-27T07:18:59.697Z,19.6
2023-04-27T07:20:12.124Z,19.6
2023-04-27T07:21:15.710Z,19.62
2023-04-27T07:22:28.128Z,19.63
2023-04-27T07:23:41.195Z,19.62
2023-04-27T07:24:43.878Z,19.62
2023-04-27T07:25:57.187Z,19.63
2023-04-27T07:27:09.591Z,19.6
2023-04-27T07:28:22.685Z,19.64
2023-04-27T07:29:27.378Z,19.64
2023-04-27T07:30:40.676Z,19.67
2023-04-27T07:31:43.192Z,19.66
2023-04-27T07:32:56.761Z,19.67
2023-04-27T07:34:35.073Z,19.7
2023-04-27T07:35:15.205Z,19.7
2023-04-27T07:36:27.628Z,19.74
2023-04-27T07:37:40.699Z,19.76
2023-04-27T07:38:43.217Z,19.77
2023-04-27T07:39:56.205Z,19.8
2023-04-27T07:41:08.580Z,19.8
2023-04-27T07:42:21.696Z,19.83
2023-04-27T07:43:24.147Z,19.81
2023-04-27T07:44:37.186Z,19.83
2023-04-27T07:45:49.553Z,19.84
2023-04-27T07:47:02.666Z,19.86
2023-04-27T07:48:05.211Z,19.87
2023-04-27T07:49:18.681Z,19.87
2023-04-27T07:50:31.104Z,19.9
2023-04-27T07:51:34.203Z,19.91
2023-04-27T07:52:46.563Z,19.93
2023-04-27T07:53:59.695Z,19.93
2023-04-27T07:55:12.120Z,19.96
2023-04-27T07:56:15.235Z,19.96
2023-04-27T07:57:27.598Z,20.0
2023-04-27T07:58:40.693Z,20.03
2023-04-27T07:59:43.255Z,20.06
2023-04-27T08:00:56.690Z,20.07
2023-04-27T08:02:19.080Z,20.1
2023-04-27T08:03:23.517Z,20.13
2023-04-27T08:04:26.532Z,20.17
2023-04-27T08:05:40.489Z,20.18
2023-04-27T08:06:43.476Z,20.22
2023-04-27T08:07:56.727Z,20.25
2023-04-27T08:09:09.214Z,20.28
2023-04-27T08:10:22.196Z,20.31
2023-04-27T08:11:24.631Z,20.35
2023-04-27T08:12:37.685Z,20.38
2023-04-27T08:13:50.094Z,20.38
2023-04-27T08:15:03.177Z,20.44
2023-04-27T08:16:05.768Z,20.42
2023-04-27T08:17:19.208Z,20.46
2023-04-27T08:18:31.525Z,20.49
2023-04-27T08:19:34.785Z,20.49
2023-04-27T08:20:47.179Z,20.51
2023-04-27T08:22:00.201Z,20.55
2023-04-27T08:23:12.582Z,20.55
2023-04-27T08:24:15.710Z,20.59
2023-04-27T08:25:28.061Z,20.62
2023-04-27T08:26:41.210Z,20.62
2023-04-27T08:27:43.791Z,20.65
2023-04-27T08:28:56.708Z,20.66
2023-04-27T08:30:09.002Z,20.7
2023-04-27T08:31:22.297Z,20.68
2023-04-27T08:32:24.843Z,20.69
2023-04-27T08:33:38.212Z,20.75
2023-04-27T08:34:50.512Z,20.76
2023-04-27T08:35:53.684Z,20.75
2023-04-27T08:37:05.967Z,20.76
2023-04-27T08:38:19.192Z,20.8
2023-04-27T08:39:31.558Z,20.83
2023-04-27T08:40:34.687Z,20.8
2023-04-27T08:41:46.975Z,20.86
2023-04-27T08:43:00.183Z,20.86
2023-04-27T08:44:02.606Z,20.88
2023-04-27T08:45:15.728Z,20.92
2023-04-27T08:46:28.117Z,20.93
2023-04-27T08:47:43.810Z,20.97
2023-04-27T08:48:46.610Z,21.0
2023-04-27T08:49:59.718Z,20.99
2023-04-27T08:51:02.130Z,21.0
2023-04-27T08:52:15.201Z,21.03
2023-04-27T08:53:27.507Z,21.06
2023-04-27T08:54:41.245Z,21.06
2023-04-27T08:55:43.646Z,21.07
2023-04-27T08:56:56.708Z,21.1
2023-04-27T08:58:09.011Z,21.11
2023-04-27T08:59:12.406Z,21.11
2023-04-27T09:00:24.904Z,21.14
2023-04-27T09:01:47.758Z,21.16
2023-04-27T09:02:50.397Z,21.14
2023-04-27T09:03:53.862Z,21.2
2023-04-27T09:05:06.481Z,21.2
2023-04-27T09:06:19.815Z,21.21
2023-04-27T09:07:22.394Z,21.23
2023-04-27T09:08:35.741Z,21.24
2023-04-27T09:09:48.037Z,21.26
2023-04-27T09:11:01.223Z,21.27
2023-04-27T09:12:03.628Z,21.29
2023-04-27T09:13:16.739Z,21.31
2023-04-27T09:14:29.084Z,21.33
2023-04-27T09:15:32.256Z,21.34
2023-04-27T09:16:44.709Z,21.36
2023-04-27T09:17:58.244Z,21.37
2023-04-27T09:19:10.657Z,21.37
2023-04-27T09:20:13.891Z,21.39
2023-04-27T09:21:26.354Z,21.39
2023-04-27T09:22:59.248Z,21.47
2023-04-27T09:23:41.958Z,21.43
2023-04-27T09:24:54.259Z,21.47
2023-04-27T09:26:07.260Z,21.48
2023-04-27T09:27:19.541Z,21.5
2023-04-27T09:28:22.720Z,21.5
2023-04-27T09:29:35.002Z,21.55
2023-04-27T09:30:48.204Z,21.54
2023-04-27T09:31:50.614Z,21.58
2023-04-27T09:33:03.873Z,21.57
2023-04-27T09:34:16.207Z,21.57
2023-04-27T09:35:29.241Z,21.6
2023-04-27T09:36:31.662Z,21.61
2023-04-27T09:37:44.740Z,21.61
2023-04-27T09:38:56.991Z,21.64
2023-04-27T09:40:10.219Z,21.65
2023-04-27T09:41:12.621Z,21.68
2023-04-27T09:42:25.750Z,21.67
2023-04-27T09:43:37.994Z,21.68
2023-04-27T09:44:41.236Z,21.71
2023-04-27T09:45:53.631Z,21.71
2023-04-27T09:47:06.707Z,21.72
2023-04-27T09:48:18.964Z,21.74
2023-04-27T09:49:22.236Z,21.77
2023-04-27T09:50:35.645Z,21.77
2023-04-27T09:51:40.745Z,21.8
2023-04-27T09:52:53.185Z,21.81
2023-04-27T09:54:06.263Z,21.8
2023-04-27T09:55:18.506Z,21.84
2023-04-27T09:56:22.275Z,21.84
2023-04-27T09:57:34.635Z,21.82
2023-04-27T09:58:47.765Z,21.87
2023-04-27T09:59:50.193Z,21.87
2023-04-27T10:01:03.254Z,21.88
2023-04-27T10:02:24.721Z,21.88
2023-04-27T10:03:28.758Z,21.9
2023-04-27T10:04:31.341Z,21.91
2023-04-27T10:05:44.738Z,21.92
2023-04-27T10:06:57.944Z,21.92
2023-04-27T10:08:01.352Z,21.97
2023-04-27T10:09:13.800Z,21.94
2023-04-27T10:10:27.238Z,21.94
2023-04-27T10:11:29.587Z,21.97
2023-04-27T10:12:42.754Z,21.98
2023-04-27T10:13:55.243Z,21.97
2023-04-27T10:15:08.283Z,21.99
2023-04-27T10:16:10.647Z,22.01
2023-04-27T10:17:23.786Z,22.01
2023-04-27T10:18:36.145Z,22.02
2023-04-27T10:19:39.228Z,22.03
2023-04-27T10:20:51.438Z,22.02
2023-04-27T10:22:04.244Z,22.03
2023-04-27T10:23:16.455Z,22.06
2023-04-27T10:24:19.751Z,22.06
2023-04-27T10:25:32.060Z,22.08
2023-04-27T10:26:45.248Z,22.09
2023-04-27T10:27:47.639Z,22.12
2023-04-27T10:29:00.785Z,22.13
2023-04-27T10:30:13.039Z,22.13
2023-04-27T10:31:26.308Z,22.15
2023-04-27T10:32:28.701Z,22.18
2023-04-27T10:33:41.792Z,22.15
2023-04-27T10:34:54.015Z,22.21
2023-04-27T10:35:57.263Z,22.21
2023-04-27T10:37:09.670Z,22.21
2023-04-27T10:38:22.763Z,22.22
2023-04-27T10:39:32.941Z,22.22
2023-04-27T10:40:37.277Z,22.25
2023-04-27T10:41:49.532Z,22.28
2023-04-27T10:43:02.759Z,22.29
2023-04-27T10:44:05.084Z,22.3
2023-04-27T10:45:18.494Z,22.32
2023-04-27T10:46:30.818Z,22.33
2023-04-27T10:47:34.292Z,22.35
2023-04-27T10:48:46.529Z,22.38
2023-04-27T10:49:59.784Z,22.36
2023-04-27T10:51:12.034Z,22.38
2023-04-27T10:52:15.280Z,22.39
2023-04-27T10:53:27.493Z,22.41
2023-04-27T10:54:40.298Z,22.42
2023-04-27T10:55:42.659Z,22.41
2023-04-27T10:56:55.766Z,22.43
2023-04-27T10:58:07.968Z,22.45
2023-04-27T10:59:20.794Z,22.43
2023-04-27T11:00:23.790Z,22.45
2023-04-27T11:01:36.768Z,22.46
2023-04-27T11:02:49.201Z,22.49
2023-04-27T11:03:52.290Z,22.49
2023-04-27T11:05:04.884Z,22.48
2023-04-27T11:06:18.290Z,22.5
2023-04-27T11:07:20.644Z,22.5
2023-04-27T11:08:33.771Z,22.52
2023-04-27T11:09:46.025Z,22.53
2023-04-27T11:10:59.265Z,22.52
2023-04-27T11:12:01.679Z,22.56
2023-04-27T11:13:14.841Z,22.54
2023-04-27T11:14:27.203Z,22.57
2023-04-27T11:15:30.366Z,22.59
2023-04-27T11:16:42.700Z,22.6
2023-04-27T11:17:55.833Z,22.59
2023-04-27T11:19:08.105Z,22.63
2023-04-27T11:20:11.290Z,22.66
2023-04-27T11:21:23.559Z,22.64
2023-04-27T11:22:36.760Z,22.66
2023-04-27T11:23:39.089Z,22.67
2023-04-27T11:24:52.258Z,22.67
2023-04-27T11:26:04.497Z,22.67
2023-04-27T11:27:17.282Z,22.69
2023-04-27T11:28:19.587Z,22.72
2023-04-27T11:29:34.589Z,22.72
2023-04-27T11:30:46.985Z,22.74
2023-04-27T11:31:50.282Z,22.72
2023-04-27T11:33:02.658Z,22.74
2023-04-27T11:34:16.312Z,22.79
2023-04-27T11:35:18.755Z,22.79
2023-04-27T11:36:31.797Z,22.8
2023-04-27T11:37:44.044Z,22.79
2023-04-27T11:38:47.262Z,22.79
2023-04-27T11:39:59.464Z,22.81
2023-04-27T11:41:12.799Z,22.83
2023-04-27T11:42:25.052Z,22.84
2023-04-27T11:43:28.298Z,22.86
2023-04-27T11:44:40.540Z,22.86
2023-04-27T11:45:54.265Z,22.86
2023-04-27T11:46:56.756Z,22.86
2023-04-27T11:48:09.829Z,22.9
2023-04-27T11:49:22.021Z,22.88
2023-04-27T11:50:25.288Z,22.88
2023-04-27T11:51:37.622Z,22.91
2023-04-27T11:52:50.766Z,22.91
2023-04-27T11:54:02.951Z,22.94
2023-04-27T11:55:06.474Z,22.94
2023-04-27T11:56:18.768Z,22.94
2023-04-27T11:57:31.898Z,22.94
2023-04-27T11:58:34.299Z,22.94
2023-04-27T11:59:47.291Z,22.96
2023-04-27T12:00:59.459Z,22.96
2023-04-27T12:02:12.883Z,22.99
2023-04-27T12:03:15.383Z,23.0
2023-04-27T12:04:28.966Z,22.99
2023-04-27T12:05:31.460Z,23.0
2023-04-27T12:06:44.774Z,22.99
2023-04-27T12:07:56.955Z,23.01
2023-04-27T12:09:20.106Z,23.0
2023-04-27T12:10:12.596Z,23.04
2023-04-27T12:11:25.778Z,23.0
2023-04-27T12:12:37.989Z,23.04
2023-04-27T12:13:41.287Z,23.05
2023-04-27T12:14:53.508Z,23.03
2023-04-27T12:16:06.394Z,23.05
2023-04-27T12:17:18.551Z,23.04
2023-04-27T12:18:21.779Z,23.04
2023-04-27T12:19:34.065Z,23.03
2023-04-27T12:20:56.799Z,23.05
2023-04-27T12:21:49.219Z,23.04
2023-04-27T12:23:02.287Z,23.05
2023-04-27T12:24:14.728Z,23.04
2023-04-27T12:25:27.780Z,23.05
2023-04-27T12:26:30.173Z,23.04
2023-04-27T12:27:43.294Z,23.07
2023-04-27T12:28:55.522Z,23.04
2023-04-27T12:30:08.289Z,23.08
2023-04-27T12:31:10.684Z,23.04
2023-04-27T12:32:23.826Z,23.07
2023-04-27T12:33:36.097Z,23.07
2023-04-27T12:34:39.294Z,23.05
2023-04-27T12:35:51.443Z,23.05
2023-04-27T12:37:04.332Z,23.04
2023-04-27T12:38:16.507Z,23.05
2023-04-27T12:39:19.839Z,23.07
2023-04-27T12:40:32.052Z,23.08
2023-04-27T12:41:45.302Z,23.08
2023-04-27T12:42:47.647Z,23.08
2023-04-27T12:44:00.768Z,23.08
2023-04-27T12:45:12.986Z,23.1
2023-04-27T12:46:25.863Z,23.07
2023-04-27T12:47:49.888Z,23.1
2023-04-27T12:48:42.373Z,23.11
2023-04-27T12:49:54.724Z,23.13
2023-04-27T12:50:57.824Z,23.1
2023-04-27T12:52:10.176Z,23.14
2023-04-27T12:53:32.800Z,23.14
2023-04-27T12:54:25.209Z,23.14
2023-04-27T12:55:38.327Z,23.13
2023-04-27T12:56:50.473Z,23.14
2023-04-27T12:58:03.323Z,23.14
2023-04-27T12:59:05.773Z,23.15
2023-04-27T13:00:18.800Z,23.15
2023-04-27T13:01:31.157Z,23.14
2023-04-27T13:02:34.376Z,23.15
2023-04-27T13:03:46.740Z,23.13
2023-04-27T13:04:59.872Z,23.13
2023-04-27T13:06:12.167Z,23.14
2023-04-27T13:07:15.307Z,23.15
2023-04-27T13:08:27.617Z,23.14
2023-04-27T13:09:40.774Z,23.14
2023-04-27T13:10:43.124Z,23.13
2023-04-27T13:11:56.287Z,23.14
2023-04-27T13:13:08.518Z,23.14
2023-04-27T13:14:21.291Z,23.14
2023-04-27T13:15:23.609Z,23.14
2023-04-27T13:16:36.832Z,23.13
2023-04-27T13:17:49.206Z,23.15
2023-04-27T13:18:52.328Z,23.14
2023-04-27T13:20:04.554Z,23.14
2023-04-27T13:21:17.293Z,23.15
2023-04-27T13:22:29.482Z,23.14
2023-04-27T13:23:32.829Z,23.17
2023-04-27T13:24:45.028Z,23.15
2023-04-27T13:25:57.788Z,23.14
2023-04-27T13:27:00.130Z,23.14
2023-04-27T13:28:13.329Z,23.14
2023-04-27T13:29:25.567Z,23.13
2023-04-27T13:30:38.820Z,23.14
2023-04-27T13:31:41.222Z,23.14
2023-04-27T13:32:54.357Z,23.14
2023-04-27T13:34:06.633Z,23.2
2023-04-27T13:35:09.816Z,23.17
2023-04-27T13:36:22.023Z,23.2
2023-04-27T13:37:34.794Z,23.18
2023-04-27T13:38:47.001Z,23.18
2023-04-27T13:39:50.281Z,23.17
2023-04-27T13:41:02.481Z,23.17
2023-04-27T13:42:15.339Z,23.17
2023-04-27T13:43:17.682Z,23.2
2023-04-27T13:44:30.826Z,23.17
2023-04-27T13:45:42.951Z,23.18
2023-04-27T13:46:55.827Z,23.2
2023-04-27T13:47:58.333Z,23.2
2023-04-27T13:49:11.339Z,23.17
2023-04-27T13:50:23.451Z,23.18
2023-04-27T13:51:36.327Z,23.21
2023-04-27T13:52:38.599Z,23.21
2023-04-27T13:53:51.797Z,23.2
2023-04-27T13:55:03.915Z,23.21
2023-04-27T13:56:06.812Z,23.2
2023-04-27T13:57:19.104Z,23.21
2023-04-27T13:58:31.843Z,23.21
2023-04-27T13:59:43.969Z,23.21
2023-04-27T14:00:46.891Z,23.23
2023-04-27T14:01:59.085Z,23.21
2023-04-27T14:03:12.020Z,23.23
2023-04-27T14:04:14.648Z,23.23
2023-04-27T14:05:27.817Z,23.21
2023-04-27T14:06:40.007Z,23.23
2023-04-27T14:07:52.828Z,23.24
2023-04-27T14:08:55.780Z,23.23
2023-04-27T14:10:08.855Z,23.24
2023-04-27T14:11:21.129Z,23.23
2023-04-27T14:12:24.339Z,23.24
2023-04-27T14:13:36.538Z,23.24
2023-04-27T14:14:49.336Z,23.21
2023-04-27T14:16:01.590Z,23.25
2023-04-27T14:17:04.865Z,23.24
2023-04-27T14:18:17.049Z,23.25
2023-04-27T14:19:30.344Z,23.21
2023-04-27T14:20:32.687Z,23.27
2023-04-27T14:21:45.835Z,23.23
2023-04-27T14:22:58.603Z,23.23
2023-04-27T14:24:11.353Z,23.24
2023-04-27T14:25:13.448Z,23.25
2023-04-27T14:26:26.342Z,23.21
2023-04-27T14:27:38.582Z,23.24
2023-04-27T14:28:41.836Z,23.21
2023-04-27T14:29:54.020Z,23.23
2023-04-27T14:31:06.828Z,23.23
2023-04-27T14:32:19.074Z,23.23
2023-04-27T14:33:22.345Z,23.24
2023-04-27T14:34:34.528Z,23.23
2023-04-27T14:35:47.330Z,23.23
2023-04-27T14:36:49.622Z,23.25
2023-04-27T14:38:02.630Z,23.24
2023-04-27T14:39:15.203Z,23.2
2023-04-27T14:40:28.338Z,23.17
2023-04-27T14:41:30.593Z,23.18
2023-04-27T14:42:43.326Z,23.2
2023-04-27T14:43:55.491Z,23.18
2023-04-27T14:45:08.360Z,23.18
2023-04-27T14:46:20.377Z,23.15
2023-04-27T14:47:24.408Z,23.17
2023-04-27T14:48:36.638Z,23.17
2023-04-27T14:49:40.042Z,23.18
2023-04-27T14:50:52.147Z,23.18
2023-04-27T14:52:05.337Z,23.17
2023-04-27T14:53:07.639Z,23.15
2023-04-27T14:54:20.332Z,23.15
2023-04-27T14:55:32.583Z,23.14
2023-04-27T14:56:45.828Z,23.14
2023-04-27T14:57:48.157Z,23.13
2023-04-27T14:59:01.345Z,23.13
2023-04-27T15:00:13.550Z,23.1
2023-04-27T15:01:16.861Z,23.13
2023-04-27T15:02:30.146Z,23.1
2023-04-27T15:03:44.931Z,23.08